Time;durP1;ratioP1;P1;durP2;ratioP2;P2;SDS_P1;SDS_P2;PMS_P1;PMS_P2;Temp;Humidity;BMP_temperature;BMP_pressure;BME280_temperature;BME280_humidity;BME280_pressure;Samples;Min_cycle;Max_cycle;Signal;HPM_P1;HPM_P2
2024/01/15 00:01:17;;;;;;;13.73;5.18;;;0.20;99.90;;;;;;5056737;28;20047;-65
2024/01/15 00:03:42;;;;;;;19.90;6.75;;;0.30;99.90;;;;;;5055808;28;20057;-66
2024/01/15 00:06:08;;;;;;;16.48;6.07;;;0.30;99.90;;;;;;5056266;28;20054;-66
2024/01/15 00:08:33;;;;;;;17.67;6.05;;;0.30;99.90;;;;;;5055949;28;20032;-66
2024/01/15 00:10:59;;;;;;;16.38;6.22;;;0.30;99.90;;;;;;5056564;28;20032;-66
2024/01/15 00:13:24;;;;;;;16.60;6.35;;;0.40;99.90;;;;;;5055779;28;20029;-66
2024/01/15 00:15:50;;;;;;;18.45;5.55;;;0.40;99.90;;;;;;5055929;28;20138;-66
2024/01/15 00:18:15;;;;;;;19.77;5.80;;;0.40;99.90;;;;;;5055547;28;20025;-66
2024/01/15 00:20:41;;;;;;;14.50;6.20;;;0.50;99.90;;;;;;5056717;28;20021;-66
2024/01/15 00:23:07;;;;;;;18.88;6.00;;;0.50;99.90;;;;;;5058596;28;20024;-66
2024/01/15 00:25:32;;;;;;;20.75;6.25;;;0.40;99.90;;;;;;5060354;28;20041;-66
2024/01/15 00:27:58;;;;;;;23.30;7.15;;;0.40;99.90;;;;;;5059796;28;20048;-65
2024/01/15 00:30:23;;;;;;;14.95;5.38;;;0.40;99.90;;;;;;5059391;28;20055;-66
2024/01/15 00:32:49;;;;;;;22.40;6.57;;;0.30;99.90;;;;;;5060353;28;20033;-66
2024/01/15 00:35:14;;;;;;;13.43;5.55;;;0.30;99.90;;;;;;5060220;28;20025;-66
2024/01/15 00:37:40;;;;;;;16.13;5.82;;;0.40;99.90;;;;;;5060162;28;20051;-66
2024/01/15 00:40:07;;;;;;;16.02;5.15;;;0.30;99.90;;;;;;5059024;28;20029;-66
2024/01/15 00:42:33;;;;;;;16.58;5.65;;;0.40;99.90;;;;;;5060259;28;20044;-66
2024/01/15 00:44:59;;;;;;;14.60;5.32;;;0.40;99.90;;;;;;5060141;28;20032;-65
2024/01/15 00:47:24;;;;;;;10.32;4.15;;;0.30;99.90;;;;;;5059968;28;20103;-66
2024/01/15 00:49:50;;;;;;;13.48;5.07;;;0.30;99.90;;;;;;5059275;28;20021;-66
2024/01/15 00:52:15;;;;;;;16.27;5.53;;;0.20;99.90;;;;;;5059232;28;20020;-66
2024/01/15 00:54:41;;;;;;;16.55;5.55;;;0.20;99.90;;;;;;5059855;28;20111;-66
2024/01/15 00:57:06;;;;;;;10.68;4.22;;;0.20;99.90;;;;;;5059789;28;20033;-65
2024/01/15 00:59:32;;;;;;;11.73;4.55;;;0.10;99.90;;;;;;5059759;28;20017;-66
2024/01/15 01:01:57;;;;;;;15.73;4.80;;;0.10;99.90;;;;;;5059615;28;20027;-65
2024/01/15 01:04:23;;;;;;;17.17;4.68;;;0.00;99.90;;;;;;5059700;28;20021;-65
2024/01/15 01:06:49;;;;;;;15.75;4.78;;;0.00;99.90;;;;;;5059612;28;20017;-66
2024/01/15 01:09:14;;;;;;;15.50;4.80;;;0.00;99.90;;;;;;5059364;28;20024;-65
2024/01/15 01:11:40;;;;;;;13.77;4.43;;;0.10;99.90;;;;;;5058894;28;20024;-66
2024/01/15 01:14:06;;;;;;;11.57;3.80;;;0.10;99.90;;;;;;5059461;28;20021;-65
2024/01/15 01:16:38;;;;;;;12.95;3.47;;;0.10;99.90;;;;;;5059392;28;20078;-65
2024/01/15 01:19:04;;;;;;;16.42;5.32;;;0.00;99.90;;;;;;5059837;28;20035;-66
2024/01/15 01:21:30;;;;;;;14.02;5.10;;;0.00;99.90;;;;;;5059065;28;20052;-65
2024/01/15 01:23:55;;;;;;;11.30;3.40;;;0.00;99.90;;;;;;5058838;28;20024;-65
2024/01/15 01:26:21;;;;;;;20.58;5.65;;;0.00;99.90;;;;;;5059853;28;20021;-66
2024/01/15 01:28:46;;;;;;;15.40;5.18;;;0.00;99.90;;;;;;5059190;28;20028;-65
2024/01/15 01:31:12;;;;;;;15.15;5.07;;;0.10;99.90;;;;;;5058565;28;20025;-66
2024/01/15 01:33:40;;;;;;;15.25;4.97;;;0.20;99.90;;;;;;5057870;28;20056;-66
2024/01/15 01:36:09;;;;;;;15.98;5.15;;;0.30;99.90;;;;;;5059100;28;20040;-66
2024/01/15 01:38:35;;;;;;;15.95;5.07;;;0.30;99.90;;;;;;5059018;28;20103;-66
2024/01/15 01:41:01;;;;;;;15.38;4.80;;;0.30;99.90;;;;;;5058096;28;20067;-66
2024/01/15 01:43:27;;;;;;;12.07;5.22;;;0.30;99.90;;;;;;5058245;28;20026;-66
2024/01/15 01:45:54;;;;;;;14.20;4.65;;;0.40;99.90;;;;;;5058347;28;20025;-66
2024/01/15 01:48:20;;;;;;;9.35;5.05;;;0.40;99.90;;;;;;5058024;28;20021;-66
2024/01/15 01:50:45;;;;;;;14.32;5.47;;;0.40;99.90;;;;;;5058039;28;20086;-65
2024/01/15 01:53:11;;;;;;;13.48;5.50;;;0.40;99.90;;;;;;5057905;28;20055;-66
2024/01/15 01:55:38;;;;;;;17.13;4.82;;;0.30;99.90;;;;;;5058230;28;20082;-65
2024/01/15 01:58:04;;;;;;;18.42;5.50;;;0.20;99.90;;;;;;5057766;28;20032;-66
2024/01/15 02:00:32;;;;;;;14.05;5.97;;;0.30;99.90;;;;;;5057923;28;20025;-66
2024/01/15 02:02:57;;;;;;;18.45;5.35;;;0.40;99.90;;;;;;5057765;28;20024;-66
2024/01/15 02:05:23;;;;;;;20.52;5.50;;;0.50;99.90;;;;;;5057876;28;20025;-66
2024/01/15 02:07:48;;;;;;;18.67;5.32;;;0.60;99.90;;;;;;5058536;28;20043;-66
2024/01/15 02:10:14;;;;;;;21.08;6.03;;;0.60;99.90;;;;;;5058408;28;20067;-66
2024/01/15 02:12:40;;;;;;;22.83;6.40;;;0.60;99.90;;;;;;5057397;28;20082;-66
2024/01/15 02:15:06;;;;;;;18.10;5.57;;;0.60;99.90;;;;;;5058404;28;20029;-66
2024/01/15 02:17:31;;;;;;;15.93;6.07;;;0.70;99.90;;;;;;5057419;28;20100;-65
2024/01/15 02:19:57;;;;;;;15.88;5.40;;;0.60;99.90;;;;;;5058040;28;20071;-66
2024/01/15 02:22:22;;;;;;;24.27;6.05;;;0.60;99.90;;;;;;5058240;28;20028;-66
2024/01/15 02:24:48;;;;;;;14.95;5.60;;;0.60;99.90;;;;;;5057545;28;20025;-66
2024/01/15 02:27:14;;;;;;;18.45;6.15;;;0.60;99.90;;;;;;5058461;28;20032;-66
2024/01/15 02:29:40;;;;;;;19.58;5.93;;;0.60;99.90;;;;;;5057164;28;20115;-65
2024/01/15 02:32:06;;;;;;;18.98;5.40;;;0.50;99.90;;;;;;5056992;28;20036;-66
2024/01/15 02:34:32;;;;;;;15.30;5.35;;;0.50;99.90;;;;;;5057045;28;20032;-66
2024/01/15 02:36:58;;;;;;;14.25;5.45;;;0.40;99.90;;;;;;5057057;28;20112;-66
2024/01/15 02:39:24;;;;;;;20.10;6.85;;;0.40;99.90;;;;;;5057988;28;20087;-66
2024/01/15 02:41:49;;;;;;;19.20;5.85;;;0.40;99.90;;;;;;5057858;28;20071;-66
2024/01/15 02:44:15;;;;;;;18.33;5.35;;;0.50;99.90;;;;;;5056872;28;20025;-66
2024/01/15 02:46:40;;;;;;;18.55;5.93;;;0.60;99.90;;;;;;5057131;28;20036;-66
2024/01/15 02:49:06;;;;;;;21.42;7.30;;;0.70;99.90;;;;;;5057755;28;20021;-66
2024/01/15 02:51:34;;;;;;;18.48;6.97;;;0.60;99.90;;;;;;5056656;28;20029;-66
2024/01/15 02:54:00;;;;;;;21.25;5.82;;;0.60;99.90;;;;;;5056992;28;20115;-65
2024/01/15 02:56:25;;;;;;;18.10;5.78;;;0.50;99.90;;;;;;5056575;28;20119;-66
2024/01/15 02:58:51;;;;;;;14.43;6.18;;;0.40;99.90;;;;;;5057307;28;20025;-66
2024/01/15 03:01:19;;;;;;;16.00;5.25;;;0.40;99.90;;;;;;5057655;28;20029;-65
2024/01/15 03:03:45;;;;;;;24.40;6.30;;;0.40;99.90;;;;;;5057493;28;20109;-66
2024/01/15 03:06:10;;;;;;;16.52;6.25;;;0.40;99.90;;;;;;5056510;28;20060;-66
2024/01/15 03:08:36;;;;;;;18.85;6.32;;;0.40;99.90;;;;;;5057309;28;20108;-66
2024/01/15 03:11:02;;;;;;;18.10;5.40;;;0.30;99.90;;;;;;5057364;28;20048;-66
2024/01/15 03:13:27;;;;;;;22.50;6.60;;;0.40;99.90;;;;;;5057613;28;20060;-66
2024/01/15 03:15:53;;;;;;;20.85;6.78;;;0.30;99.90;;;;;;5057237;28;20074;-65
2024/01/15 03:18:18;;;;;;;17.50;5.63;;;0.20;99.90;;;;;;5056248;28;20025;-65
2024/01/15 03:20:44;;;;;;;24.15;5.93;;;0.30;99.90;;;;;;5057245;28;20082;-66
2024/01/15 03:23:09;;;;;;;18.75;6.45;;;0.20;99.90;;;;;;5057722;28;20025;-66
2024/01/15 03:25:35;;;;;;;18.75;5.70;;;0.30;99.90;;;;;;5056411;28;20033;-66
2024/01/15 03:28:00;;;;;;;12.13;4.45;;;0.30;99.90;;;;;;5056506;28;20021;-66
2024/01/15 03:30:26;;;;;;;20.92;6.68;;;0.30;99.90;;;;;;5057026;28;20028;-66
2024/01/15 03:32:52;;;;;;;25.05;6.78;;;0.20;99.90;;;;;;5057082;28;20047;-66
2024/01/15 03:35:17;;;;;;;21.38;7.05;;;0.20;99.90;;;;;;5056161;28;20025;-66
2024/01/15 03:37:43;;;;;;;15.73;6.03;;;0.10;99.90;;;;;;5055992;28;20028;-66
2024/01/15 03:40:09;;;;;;;17.48;5.97;;;0.10;99.90;;;;;;5056961;28;20025;-66
2024/01/15 03:42:34;;;;;;;18.83;6.30;;;0.00;99.90;;;;;;5057049;28;20104;-66
2024/01/15 03:45:00;;;;;;;20.58;5.60;;;0.10;99.90;;;;;;5057206;28;20060;-66
2024/01/15 03:47:26;;;;;;;21.42;6.32;;;0.20;99.90;;;;;;5056781;28;20021;-66
2024/01/15 03:49:52;;;;;;;17.05;5.35;;;0.20;99.90;;;;;;5055984;28;20021;-65
2024/01/15 03:52:17;;;;;;;13.30;5.57;;;0.20;99.90;;;;;;5056147;28;20025;-66
2024/01/15 03:54:43;;;;;;;14.13;6.18;;;0.20;99.90;;;;;;5056424;28;20021;-66
2024/01/15 03:57:08;;;;;;;21.85;7.47;;;0.20;99.90;;;;;;5058585;28;20075;-66
2024/01/15 03:59:34;;;;;;;19.33;5.00;;;0.20;99.90;;;;;;5060649;28;20017;-65
2024/01/15 04:01:59;;;;;;;20.77;5.72;;;0.20;99.90;;;;;;5060207;28;20071;-65
2024/01/15 04:04:25;;;;;;;19.02;6.32;;;0.10;99.90;;;;;;5060832;28;20044;-66
2024/01/15 04:06:50;;;;;;;22.17;7.18;;;0.00;99.90;;;;;;5060740;28;20021;-66
2024/01/15 04:09:16;;;;;;;15.48;5.53;;;0.10;99.90;;;;;;5060070;28;20039;-66
2024/01/15 04:11:41;;;;;;;22.67;6.53;;;0.20;99.90;;;;;;5059843;28;20025;-66
2024/01/15 04:14:07;;;;;;;18.52;7.30;;;0.20;99.90;;;;;;5060783;28;20032;-65
2024/01/15 04:16:32;;;;;;;17.52;5.70;;;0.10;99.90;;;;;;5059647;28;20032;-66
2024/01/15 04:18:58;;;;;;;17.58;5.75;;;0.20;99.90;;;;;;5060672;28;20074;-66
2024/01/15 04:21:23;;;;;;;20.67;6.22;;;0.30;99.90;;;;;;5059482;28;20028;-66
2024/01/15 04:23:49;;;;;;;21.98;7.68;;;0.40;99.90;;;;;;5060752;28;20032;-65
2024/01/15 04:26:14;;;;;;;20.65;6.32;;;0.40;99.90;;;;;;5060351;28;20013;-65
2024/01/15 04:28:40;;;;;;;16.27;5.38;;;0.30;99.90;;;;;;5060356;28;20025;-66
2024/01/15 04:31:06;;;;;;;18.20;6.57;;;0.20;99.90;;;;;;5059737;28;20112;-66
2024/01/15 04:33:31;;;;;;;23.30;6.30;;;0.30;99.90;;;;;;5059520;28;20027;-65
2024/01/15 04:36:00;;;;;;;24.40;7.22;;;0.40;99.90;;;;;;5060519;28;20052;-66
2024/01/15 04:38:26;;;;;;;25.50;7.07;;;0.40;99.90;;;;;;5060238;28;20029;-64
2024/01/15 04:40:52;;;;;;;26.83;6.68;;;0.50;99.90;;;;;;5060582;28;20063;-64
2024/01/15 04:43:17;;;;;;;27.30;7.43;;;0.50;99.90;;;;;;5060133;28;20021;-64
2024/01/15 04:45:43;;;;;;;18.48;6.45;;;0.50;99.90;;;;;;5059299;28;20116;-67
2024/01/15 04:48:08;;;;;;;17.75;6.18;;;0.40;99.90;;;;;;5060217;28;20028;-67
2024/01/15 04:50:34;;;;;;;24.50;7.25;;;0.40;99.90;;;;;;5059010;28;20025;-65
2024/01/15 04:52:59;;;;;;;19.58;6.50;;;0.30;99.90;;;;;;5059518;28;20036;-65
2024/01/15 04:55:25;;;;;;;24.10;6.55;;;0.40;99.90;;;;;;5059321;28;20029;-65
2024/01/15 04:57:50;;;;;;;19.38;6.00;;;0.40;99.90;;;;;;5059049;28;20028;-65
2024/01/15 05:00:16;;;;;;;23.83;6.80;;;0.40;99.90;;;;;;5059040;28;20025;-65
2024/01/15 05:02:41;;;;;;;29.75;7.10;;;0.30;99.90;;;;;;5059137;28;20021;-65
2024/01/15 05:05:07;;;;;;;18.98;5.40;;;0.30;99.90;;;;;;5059860;28;20071;-64
2024/01/15 05:07:33;;;;;;;23.13;6.57;;;0.30;99.90;;;;;;5059523;28;20021;-65
2024/01/15 05:09:58;;;;;;;24.63;6.88;;;0.30;99.90;;;;;;5059099;28;20017;-65
2024/01/15 05:12:24;;;;;;;24.80;6.82;;;0.30;99.90;;;;;;5059631;28;20032;-65
2024/01/15 05:14:49;;;;;;;15.65;6.25;;;0.30;99.90;;;;;;5058817;28;20021;-68
2024/01/15 05:17:15;;;;;;;21.33;6.32;;;0.20;99.90;;;;;;5059711;28;20055;-65
2024/01/15 05:19:40;;;;;;;27.08;6.78;;;0.20;99.90;;;;;;5059270;28;20028;-65
2024/01/15 05:22:06;;;;;;;17.45;6.40;;;0.30;99.90;;;;;;5059330;28;20036;-65
2024/01/15 05:24:31;;;;;;;20.67;6.55;;;0.40;99.90;;;;;;5059296;28;20021;-65
2024/01/15 05:26:57;;;;;;;21.52;7.00;;;0.40;99.90;;;;;;5058740;28;20028;-65
2024/01/15 05:29:23;;;;;;;16.05;6.13;;;0.50;99.90;;;;;;5058267;28;20021;-66
2024/01/15 05:31:48;;;;;;;20.52;6.78;;;0.50;99.90;;;;;;5059161;28;20025;-65
2024/01/15 05:34:14;;;;;;;20.67;6.65;;;0.50;99.90;;;;;;5058539;28;20043;-65
2024/01/15 05:36:39;;;;;;;21.95;6.57;;;0.50;99.90;;;;;;5059121;28;20029;-65
2024/01/15 05:39:05;;;;;;;21.20;6.97;;;0.50;99.90;;;;;;5058985;28;20029;-65
2024/01/15 05:41:36;;;;;;;18.75;6.50;;;0.30;99.90;;;;;;5058964;28;20026;-65
2024/01/15 05:44:02;;;;;;;24.00;7.28;;;0.30;99.90;;;;;;5058197;28;20028;-65
2024/01/15 05:46:27;;;;;;;20.27;6.63;;;0.20;99.90;;;;;;5059250;28;20025;-65
2024/01/15 05:48:53;;;;;;;23.80;7.38;;;0.30;99.90;;;;;;5058315;28;20028;-65
2024/01/15 05:51:18;;;;;;;21.75;8.00;;;0.20;99.90;;;;;;5058793;28;20021;-65
2024/01/15 05:53:44;;;;;;;23.02;6.45;;;0.30;99.90;;;;;;5058327;28;20053;-65
2024/01/15 05:56:10;;;;;;;18.65;6.63;;;0.30;99.90;;;;;;5059015;28;20048;-65
2024/01/15 05:58:35;;;;;;;26.13;7.70;;;0.30;99.90;;;;;;5058749;28;20029;-65
2024/01/15 06:01:01;;;;;;;19.95;6.35;;;0.40;99.90;;;;;;5057911;28;20032;-66
2024/01/15 06:03:27;;;;;;;21.88;7.30;;;0.40;99.90;;;;;;5057729;28;20021;-65
2024/01/15 06:05:53;;;;;;;26.70;7.13;;;0.30;99.90;;;;;;5058837;28;20032;-65
2024/01/15 06:08:18;;;;;;;22.48;6.55;;;0.30;99.90;;;;;;5058798;28;20096;-65
2024/01/15 06:10:44;;;;;;;27.52;9.38;;;0.30;99.90;;;;;;5057570;28;20150;-65
2024/01/15 06:13:09;;;;;;;22.45;7.22;;;0.30;99.90;;;;;;5058544;28;20029;-65
2024/01/15 06:15:35;;;;;;;23.13;6.78;;;0.30;99.90;;;;;;5058464;28;20033;-65
2024/01/15 06:18:01;;;;;;;21.95;6.55;;;0.30;99.90;;;;;;5057760;28;20051;-65
2024/01/15 06:20:26;;;;;;;26.33;8.15;;;0.40;99.90;;;;;;5057249;28;20028;-65
2024/01/15 06:22:52;;;;;;;22.70;6.75;;;0.40;99.90;;;;;;5057415;28;20017;-65
2024/01/15 06:25:17;;;;;;;25.02;7.18;;;0.50;99.90;;;;;;5058508;28;20132;-65
2024/01/15 06:27:43;;;;;;;19.83;7.10;;;0.50;99.90;;;;;;5057304;28;20025;-65
2024/01/15 06:30:09;;;;;;;17.20;5.85;;;0.50;99.90;;;;;;5057140;28;20029;-65
2024/01/15 06:32:34;;;;;;;20.77;6.35;;;0.50;99.90;;;;;;5058044;28;20104;-65
2024/01/15 06:35:00;;;;;;;20.35;6.72;;;0.20;99.90;;;;;;5057010;28;20096;-65
2024/01/15 06:37:25;;;;;;;22.98;7.65;;;0.20;99.90;;;;;;5057936;28;20055;-65
2024/01/15 06:39:51;;;;;;;21.23;6.05;;;0.20;99.90;;;;;;5057980;28;20120;-65
2024/01/15 06:42:16;;;;;;;23.95;8.13;;;0.30;99.90;;;;;;5056995;28;20025;-65
2024/01/15 06:44:42;;;;;;;20.17;6.38;;;0.20;99.90;;;;;;5057136;28;20051;-65
2024/01/15 06:47:07;;;;;;;24.45;6.47;;;0.20;99.90;;;;;;5057644;28;20017;-65
2024/01/15 06:49:33;;;;;;;21.17;6.35;;;0.20;99.90;;;;;;5057802;28;20104;-65
2024/01/15 06:51:58;;;;;;;21.98;7.15;;;0.20;99.90;;;;;;5057887;28;20025;-65
2024/01/15 06:54:27;;;;;;;31.35;7.50;;;0.10;99.90;;;;;;5057602;28;20087;-65
2024/01/15 06:56:52;;;;;;;16.45;6.60;;;0.10;99.90;;;;;;5056762;28;20028;-65
2024/01/15 06:59:18;;;;;;;25.33;7.03;;;0.10;99.90;;;;;;5056747;28;20021;-65
2024/01/15 07:01:43;;;;;;;19.80;6.30;;;0.20;99.90;;;;;;5056481;28;20029;-65
2024/01/15 07:04:09;;;;;;;23.20;7.72;;;0.20;99.90;;;;;;5056695;28;20017;-65
2024/01/15 07:06:35;;;;;;;19.98;6.72;;;0.10;99.90;;;;;;5056432;28;20030;-65
2024/01/15 07:09:00;;;;;;;27.98;8.15;;;0.10;99.90;;;;;;5056879;28;20029;-65
2024/01/15 07:11:26;;;;;;;16.38;5.90;;;0.10;99.90;;;;;;5057390;28;20108;-65
2024/01/15 07:13:51;;;;;;;22.42;7.22;;;0.20;99.90;;;;;;5057001;28;20115;-65
2024/01/15 07:16:17;;;;;;;21.15;6.57;;;0.10;99.90;;;;;;5056642;28;20039;-65
2024/01/15 07:18:42;;;;;;;27.63;7.32;;;0.20;99.90;;;;;;5056475;28;20025;-65
2024/01/15 07:21:08;;;;;;;29.35;7.80;;;0.30;99.90;;;;;;5056956;28;20017;-65
2024/01/15 07:23:33;;;;;;;22.95;7.45;;;0.30;99.90;;;;;;5057603;28;20025;-65
2024/01/15 07:25:59;;;;;;;34.38;7.60;;;0.30;99.90;;;;;;5056187;28;20021;-65
2024/01/15 07:28:24;;;;;;;27.02;8.45;;;0.40;99.90;;;;;;5056326;28;20104;-65
2024/01/15 07:30:50;;;;;;;19.00;8.02;;;0.40;99.90;;;;;;5055897;28;20119;-65
2024/01/15 07:33:16;;;;;;;26.90;7.88;;;0.40;99.90;;;;;;5056141;28;20040;-65
2024/01/15 07:35:41;;;;;;;18.55;6.55;;;0.50;99.90;;;;;;5056475;28;20021;-65
2024/01/15 07:38:07;;;;;;;26.45;8.57;;;0.50;99.90;;;;;;5056128;28;20032;-65
2024/01/15 07:40:32;;;;;;;23.35;6.00;;;0.60;99.90;;;;;;5055710;28;20037;-65
2024/01/15 07:42:59;;;;;;;19.42;6.55;;;0.60;99.90;;;;;;5057110;28;20056;-65
2024/01/15 07:45:25;;;;;;;22.13;7.43;;;0.50;99.90;;;;;;5056890;28;20029;-65
2024/01/15 07:47:52;;;;;;;16.23;5.53;;;0.60;99.90;;;;;;5056079;28;20021;-65
2024/01/15 07:50:17;;;;;;;21.88;7.03;;;0.60;99.90;;;;;;5056063;28;20033;-65
2024/01/15 07:52:43;;;;;;;21.20;7.18;;;0.60;99.90;;;;;;5056204;28;20025;-65
2024/01/15 07:55:08;;;;;;;19.73;7.35;;;0.60;99.90;;;;;;5056063;28;20092;-65
2024/01/15 07:57:35;;;;;;;26.83;6.50;;;0.50;99.90;;;;;;5055885;28;20142;-65
2024/01/15 08:00:01;;;;;;;21.10;6.85;;;0.60;99.90;;;;;;5056660;28;20056;-65
2024/01/15 08:02:27;;;;;;;21.70;7.35;;;0.60;99.90;;;;;;5056788;28;20045;-65
2024/01/15 08:04:52;;;;;;;26.38;6.80;;;0.80;99.90;;;;;;5056202;28;20074;-65
2024/01/15 08:07:18;;;;;;;15.57;5.93;;;0.90;99.90;;;;;;5056799;28;20021;-65
2024/01/15 08:09:43;;;;;;;23.63;7.55;;;1.00;99.90;;;;;;5056806;28;20029;-65
2024/01/15 08:12:09;;;;;;;22.55;7.63;;;1.00;99.90;;;;;;5056605;28;20017;-64
2024/01/15 08:14:35;;;;;;;25.23;7.30;;;1.10;99.90;;;;;;5056732;28;20025;-65
2024/01/15 08:17:01;;;;;;;18.92;7.30;;;1.10;99.90;;;;;;5055605;28;20021;-65
2024/01/15 08:19:27;;;;;;;23.92;7.35;;;1.00;99.90;;;;;;5056527;28;20017;-65
2024/01/15 08:21:53;;;;;;;19.75;6.45;;;1.10;99.90;;;;;;5056153;28;20027;-65
2024/01/15 08:24:18;;;;;;;21.77;7.40;;;1.10;99.90;;;;;;5056874;28;20021;-65
2024/01/15 08:26:44;;;;;;;20.92;6.75;;;1.10;99.90;;;;;;5055601;28;20056;-65
2024/01/15 08:29:09;;;;;;;22.75;7.20;;;1.00;99.90;;;;;;5056067;28;20049;-65
2024/01/15 08:31:35;;;;;;;22.80;8.13;;;1.00;99.90;;;;;;5056707;28;20025;-65
2024/01/15 08:34:01;;;;;;;20.98;6.35;;;1.00;99.90;;;;;;5056535;28;20025;-65
2024/01/15 08:36:28;;;;;;;26.83;7.80;;;1.00;99.90;;;;;;5056414;28;20025;-65
2024/01/15 08:38:53;;;;;;;24.25;7.90;;;1.00;99.90;;;;;;5056417;28;20025;-65
2024/01/15 08:41:19;;;;;;;27.02;7.40;;;1.00;99.90;;;;;;5055462;28;20025;-65
2024/01/15 08:43:44;;;;;;;25.88;7.45;;;1.10;99.90;;;;;;5057955;28;20035;-65
2024/01/15 08:46:10;;;;;;;28.95;7.50;;;1.10;99.90;;;;;;5059564;28;20023;-65
2024/01/15 08:48:36;;;;;;;28.08;8.18;;;1.10;99.90;;;;;;5060000;28;20025;-65
2024/01/15 08:51:02;;;;;;;27.08;7.63;;;1.10;99.90;;;;;;5059895;28;20029;-65
2024/01/15 08:53:28;;;;;;;25.60;8.25;;;1.10;99.90;;;;;;5060008;28;20021;-65
2024/01/15 08:55:53;;;;;;;22.10;7.63;;;1.10;99.90;;;;;;5060310;28;20083;-65
2024/01/15 08:58:19;;;;;;;27.33;8.43;;;1.10;99.90;;;;;;5059866;28;20029;-65
2024/01/15 09:00:44;;;;;;;17.23;6.90;;;1.20;99.90;;;;;;5058770;28;20033;-65
2024/01/15 09:03:10;;;;;;;21.13;6.90;;;1.20;99.90;;;;;;5059196;28;20028;-65
2024/01/15 09:05:36;;;;;;;23.30;6.43;;;1.00;99.90;;;;;;5059030;28;20021;-65
2024/01/15 09:08:01;;;;;;;27.13;7.40;;;1.00;99.90;;;;;;5059953;28;20051;-65
2024/01/15 09:10:27;;;;;;;26.33;7.95;;;1.10;99.90;;;;;;5059479;28;20028;-65
2024/01/15 09:12:52;;;;;;;25.27;7.60;;;1.20;99.90;;;;;;5059606;28;20021;-65
2024/01/15 09:15:18;;;;;;;24.75;7.10;;;1.20;99.90;;;;;;5059826;28;20025;-65
2024/01/15 09:17:44;;;;;;;21.98;7.10;;;1.20;99.90;;;;;;5059459;28;20086;-65
2024/01/15 09:20:10;;;;;;;20.80;7.05;;;1.20;99.90;;;;;;5058861;28;20025;-66
2024/01/15 09:22:40;;;;;;;16.92;6.03;;;1.20;99.90;;;;;;5059301;28;20025;-65
2024/01/15 09:25:06;;;;;;;30.30;7.07;;;1.30;99.90;;;;;;5059656;28;20040;-65
2024/01/15 09:27:32;;;;;;;21.40;6.63;;;1.20;99.90;;;;;;5058383;28;20021;-65
2024/01/15 09:29:58;;;;;;;23.85;8.00;;;1.10;99.90;;;;;;5058424;28;20021;-65
2024/01/15 09:32:23;;;;;;;25.67;8.02;;;1.20;99.90;;;;;;5058423;28;20051;-66
2024/01/15 09:34:49;;;;;;;24.88;8.57;;;1.30;99.90;;;;;;5058345;28;20040;-66
2024/01/15 09:37:15;;;;;;;24.88;7.95;;;1.40;99.90;;;;;;5059173;28;20021;-65
2024/01/15 09:39:41;;;;;;;25.17;7.40;;;1.40;99.90;;;;;;5059035;28;20047;-66
2024/01/15 09:42:07;;;;;;;23.10;6.95;;;1.50;99.90;;;;;;5058168;28;20025;-66
2024/01/15 09:44:33;;;;;;;24.75;7.57;;;1.50;99.90;;;;;;5059105;28;20017;-66
2024/01/15 09:46:59;;;;;;;23.77;7.18;;;1.50;99.90;;;;;;5058907;28;20024;-66
2024/01/15 09:49:25;;;;;;;17.38;6.93;;;1.50;99.90;;;;;;5057977;28;20021;-65
2024/01/15 09:51:51;;;;;;;26.77;7.38;;;1.50;99.90;;;;;;5058271;28;20051;-65
2024/01/15 09:54:17;;;;;;;25.00;7.68;;;1.50;99.90;;;;;;5057714;28;20079;-65
2024/01/15 09:56:46;;;;;;;24.50;7.40;;;1.40;99.90;;;;;;5057922;28;20021;-66
2024/01/15 09:59:15;;;;;;;24.40;8.25;;;1.40;99.90;;;;;;5057930;28;20040;-66
2024/01/15 10:01:43;;;;;;;23.15;8.00;;;1.30;99.90;;;;;;5058016;28;20032;-66
2024/01/15 10:04:08;;;;;;;23.80;8.10;;;1.30;99.90;;;;;;5058570;28;20033;-66
2024/01/15 10:06:34;;;;;;;26.83;8.93;;;1.30;99.90;;;;;;5058605;28;20017;-66
2024/01/15 10:09:01;;;;;;;26.42;7.93;;;1.30;99.90;;;;;;5058658;28;20021;-66
2024/01/15 10:11:26;;;;;;;27.45;9.13;;;1.30;99.90;;;;;;5058391;28;20052;-66
2024/01/15 10:13:53;;;;;;;25.25;7.95;;;1.20;99.90;;;;;;5057544;28;20029;-66
2024/01/15 10:16:21;;;;;;;37.88;7.40;;;1.30;99.90;;;;;;5058476;28;20032;-66
2024/01/15 10:18:47;;;;;;;18.90;7.10;;;1.30;99.90;;;;;;5057383;28;20078;-65
2024/01/15 10:21:14;;;;;;;25.15;7.88;;;1.20;99.90;;;;;;5058101;28;20025;-66
2024/01/15 10:23:39;;;;;;;24.67;7.35;;;1.30;99.90;;;;;;5058297;28;20021;-65
2024/01/15 10:26:05;;;;;;;28.52;8.30;;;1.40;99.90;;;;;;5057741;28;20025;-65
2024/01/15 10:28:31;;;;;;;26.20;8.48;;;1.40;99.90;;;;;;5058137;28;20060;-66
2024/01/15 10:31:01;;;;;;;26.58;8.77;;;1.50;99.90;;;;;;5057347;28;20032;-65
2024/01/15 10:33:27;;;;;;;27.65;7.68;;;1.60;99.90;;;;;;5058028;28;20044;-65
2024/01/15 10:36:00;;;;;;;22.05;6.93;;;1.70;99.90;;;;;;5057939;28;20021;-65
2024/01/15 10:38:26;;;;;;;24.02;7.55;;;1.80;99.90;;;;;;5057882;28;20025;-65
2024/01/15 10:40:55;;;;;;;25.55;7.97;;;1.80;99.90;;;;;;5057623;28;20029;-66
2024/01/15 10:43:22;;;;;;;23.42;8.10;;;1.80;99.90;;;;;;5057103;28;20032;-65
2024/01/15 10:45:51;;;;;;;29.95;7.50;;;1.80;99.90;;;;;;5057162;28;20024;-66
2024/01/15 10:48:19;;;;;;;17.67;7.28;;;1.90;99.90;;;;;;5058101;28;20021;-65
2024/01/15 10:50:45;;;;;;;19.02;6.88;;;2.00;99.90;;;;;;5056796;28;20025;-66
2024/01/15 10:53:14;;;;;;;21.58;6.93;;;2.10;99.90;;;;;;5056897;28;20076;-65
2024/01/15 10:55:42;;;;;;;24.52;6.53;;;2.20;99.90;;;;;;5057724;28;20049;-66
2024/01/15 10:58:08;;;;;;;19.02;6.78;;;2.20;99.90;;;;;;5056588;28;20020;-66
2024/01/15 11:00:37;;;;;;;18.20;6.72;;;2.30;99.90;;;;;;5056621;28;20027;-65
2024/01/15 11:03:05;;;;;;;20.95;6.75;;;2.30;99.90;;;;;;5057493;28;20111;-66
2024/01/15 11:05:36;;;;;;;22.40;7.07;;;2.30;99.90;;;;;;5057438;28;20095;-66
2024/01/15 11:08:02;;;;;;;21.52;7.28;;;2.20;99.90;;;;;;5057337;28;20021;-65
2024/01/15 11:10:49;;;;;;;19.20;7.38;;;2.10;99.90;;;;;;5057367;28;20021;-66
2024/01/15 11:13:20;;;;;;;19.90;7.20;;;2.10;99.90;;;;;;5057414;28;20142;-66
2024/01/15 11:15:59;;;;;;;17.40;5.37;;;2.10;99.90;;;;;;5057470;28;20025;-66
2024/01/15 11:18:27;;;;;;;26.27;7.03;;;2.10;99.90;;;;;;5057108;28;20356;-66
2024/01/15 11:21:23;;;;;;;26.35;7.10;;;2.10;99.90;;;;;;5057321;28;20021;-65
2024/01/15 11:23:54;;;;;;;19.83;6.55;;;2.10;99.90;;;;;;5035830;28;20072;-66
2024/01/15 11:26:45;;;;;;;18.63;6.03;;;2.10;99.90;;;;;;5035818;28;20025;-66
2024/01/15 11:29:26;;;;;;;18.45;6.32;;;2.10;99.90;;;;;;5035897;28;20104;-65
2024/01/15 11:32:05;;;;;;;17.52;7.65;;;2.00;99.90;;;;;;5035661;28;20061;-65
2024/01/15 11:34:49;;;;;;;16.38;6.57;;;1.80;99.90;;;;;;5019136;28;20033;-65
2024/01/15 11:37:14;;;;;;;20.17;7.43;;;1.70;99.90;;;;;;5019662;28;20029;-66
2024/01/15 11:39:42;;;;;;;19.70;7.00;;;1.70;99.90;;;;;;5018908;28;20042;-65
2024/01/15 11:42:09;;;;;;;16.33;6.43;;;1.70;99.90;;;;;;5018618;28;20029;-65
2024/01/15 11:44:34;;;;;;;26.40;7.63;;;1.60;99.90;;;;;;5019228;28;20103;-65
2024/01/15 11:47:07;;;;;;;19.27;7.63;;;1.60;99.90;;;;;;5019102;28;20033;-66
2024/01/15 11:50:01;;;;;;;27.70;8.30;;;1.60;99.90;;;;;;5035543;28;20025;-65
2024/01/15 11:52:38;;;;;;;18.48;7.13;;;1.60;99.90;;;;;;5035433;28;20040;-66
2024/01/15 11:55:30;;;;;;;18.60;6.35;;;1.70;99.90;;;;;;5018745;28;20017;-65
2024/01/15 11:58:00;;;;;;;17.00;6.00;;;1.70;99.90;;;;;;5035837;28;20025;-65
2024/01/15 12:00:25;;;;;;;15.68;6.20;;;1.70;99.90;;;;;;5048046;28;20033;-66
2024/01/15 12:02:51;;;;;;;16.13;5.90;;;1.70;99.90;;;;;;5056674;28;20021;-65
2024/01/15 12:05:18;;;;;;;16.38;5.53;;;1.80;99.90;;;;;;5056301;28;20115;-65
2024/01/15 12:07:48;;;;;;;22.17;6.40;;;1.60;99.90;;;;;;5055869;28;20108;-65
2024/01/15 12:10:15;;;;;;;18.30;6.82;;;1.60;99.90;;;;;;5055653;28;20070;-65
2024/01/15 12:12:47;;;;;;;23.48;7.40;;;1.60;99.90;;;;;;5055694;28;20056;-65
2024/01/15 12:15:13;;;;;;;17.17;6.53;;;1.60;99.90;;;;;;5055781;28;20093;-65
2024/01/15 12:17:39;;;;;;;21.90;6.97;;;1.60;99.90;;;;;;5058278;28;20032;-65
2024/01/15 12:20:06;;;;;;;18.38;6.35;;;1.70;99.90;;;;;;5060565;28;20047;-65
2024/01/15 12:22:31;;;;;;;16.98;6.75;;;1.90;99.90;;;;;;5059615;28;20031;-65
2024/01/15 12:24:57;;;;;;;20.20;7.05;;;2.00;99.90;;;;;;5060519;28;20033;-65
2024/01/15 12:27:23;;;;;;;14.82;5.65;;;2.10;99.90;;;;;;5059517;28;20053;-65
2024/01/15 12:29:49;;;;;;;17.45;5.55;;;2.10;99.90;;;;;;5060429;28;20017;-65
2024/01/15 12:32:15;;;;;;;11.18;4.65;;;1.90;99.90;;;;;;5059918;28;20025;-65
2024/01/15 12:34:40;;;;;;;10.43;5.05;;;1.80;99.90;;;;;;5059644;28;20032;-65
2024/01/15 12:37:08;;;;;;;15.98;6.28;;;1.80;99.90;;;;;;5059334;28;20057;-65
2024/01/15 12:39:36;;;;;;;17.40;6.32;;;1.90;99.90;;;;;;5059471;28;20044;-65
2024/01/15 12:42:03;;;;;;;12.88;5.30;;;2.10;99.90;;;;;;5060120;28;20021;-66
2024/01/15 12:44:29;;;;;;;9.10;4.43;;;2.10;99.90;;;;;;5060161;28;20021;-65